Time;durP1;ratioP1;P1;durP2;ratioP2;P2;SDS_P1;SDS_P2;PMS_P1;PMS_P2;Temp;Humidity;BMP_temperature;BMP_pressure;BME280_temperature;BME280_humidity;BME280_pressure;Samples;Min_cycle;Max_cycle;Signal;HPM_P1;HPM_P2
2023/07/14 00:00:44;;;;;;;2.80;2.50;;;;;;;19.78;75.66;98428.09;3990376;29;20801;-74
2023/07/14 00:02:50;;;;;;;4.90;2.90;;;;;;;19.70;75.62;98423.56;4007463;29;20976;-74
2023/07/14 00:04:52;;;;;;;2.83;2.40;;;;;;;19.66;76.37;98429.31;4012402;29;20665;-74
2023/07/14 00:06:55;;;;;;;3.20;2.33;;;;;;;19.62;75.63;98430.59;4016184;29;20661;-73
2023/07/14 00:09:00;;;;;;;2.90;2.50;;;;;;;19.61;75.71;98421.00;4010498;29;21071;-74
2023/07/14 00:11:03;;;;;;;3.30;2.43;;;;;;;19.55;75.66;98430.38;4012215;29;20679;-74
2023/07/14 00:13:09;;;;;;;3.40;2.47;;;;;;;19.51;76.85;98421.06;4008324;29;20654;-74
2023/07/14 00:15:13;;;;;;;3.83;2.70;;;;;;;19.44;76.15;98416.56;4012887;29;21100;-74
2023/07/14 00:17:16;;;;;;;6.73;2.90;;;;;;;19.38;77.26;98425.94;4009977;29;20670;-74
2023/07/14 00:19:20;;;;;;;3.67;2.87;;;;;;;19.38;76.31;98417.16;4007126;29;20677;-74
2023/07/14 00:21:25;;;;;;;3.70;2.83;;;;;;;19.38;76.48;98422.47;4014108;29;20701;-74
2023/07/14 00:23:28;;;;;;;3.90;2.90;;;;;;;19.36;76.63;98424.41;3999397;29;20669;-74
2023/07/14 00:25:33;;;;;;;3.50;2.77;;;;;;;19.33;77.51;98422.06;4011209;29;20690;-74
2023/07/14 00:27:35;;;;;;;4.57;2.80;;;;;;;19.32;76.58;98423.06;4010722;29;21246;-74
2023/07/14 00:29:39;;;;;;;3.43;2.70;;;;;;;19.28;76.97;98426.97;3999782;29;20718;-74
2023/07/14 00:31:42;;;;;;;3.60;2.40;;;;;;;19.29;78.03;98422.50;4011795;29;20677;-74
2023/07/14 00:33:49;;;;;;;3.07;2.37;;;;;;;19.29;77.34;98419.88;4011221;29;20666;-73
2023/07/14 00:35:52;;;;;;;5.67;3.10;;;;;;;19.28;77.29;98423.50;4012399;29;20696;-74
2023/07/14 00:37:57;;;;;;;2.83;2.37;;;;;;;19.27;77.51;98422.66;4011423;29;20747;-74
2023/07/14 00:40:00;;;;;;;4.10;3.00;;;;;;;19.25;76.48;98421.16;4012912;29;20666;-74
2023/07/14 00:42:07;;;;;;;2.73;2.30;;;;;;;19.22;78.18;98416.16;4012728;29;20754;-74
2023/07/14 00:44:13;;;;;;;3.93;2.47;;;;;;;19.17;77.75;98424.56;3994839;29;21342;-75
2023/07/14 00:46:24;;;;;;;2.90;2.40;;;;;;;19.12;77.84;98423.31;3997012;29;20674;-74
2023/07/14 00:48:29;;;;;;;2.80;2.53;;;;;;;19.09;77.88;98419.19;4010273;29;21016;-74
2023/07/14 00:50:35;;;;;;;3.80;2.40;;;;;;;19.05;78.11;98414.34;4006131;29;20676;-74
2023/07/14 00:52:39;;;;;;;3.20;2.70;;;;;;;19.00;78.28;98419.19;4009107;29;20660;-74
2023/07/14 00:54:44;;;;;;;3.30;2.57;;;;;;;18.97;78.24;98415.06;4025036;29;20743;-74
2023/07/14 00:56:47;;;;;;;3.00;2.13;;;;;;;18.93;78.92;98420.78;4010180;29;20689;-74
2023/07/14 00:58:52;;;;;;;4.53;2.70;;;;;;;18.89;78.72;98412.28;4008447;29;20769;-74
2023/07/14 01:01:09;;;;;;;4.43;2.80;;;;;;;18.85;78.94;98411.91;4007262;29;20655;-74
2023/07/14 01:03:16;;;;;;;4.17;2.80;;;;;;;18.81;79.16;98410.53;4005867;29;20668;-74
2023/07/14 01:05:19;;;;;;;7.07;2.40;;;;;;;18.81;79.03;98410.53;4013381;29;20665;-74
2023/07/14 01:07:26;;;;;;;4.43;2.70;;;;;;;18.78;78.42;98405.53;3999113;29;21148;-74
2023/07/14 01:09:29;;;;;;;3.87;2.70;;;;;;;18.73;79.08;98403.34;4013026;29;20691;-74
2023/07/14 01:11:34;;;;;;;3.43;2.50;;;;;;;18.74;78.67;98404.19;4008039;29;20673;-74
2023/07/14 01:13:37;;;;;;;5.17;2.67;;;;;;;18.70;78.86;98398.38;4009315;29;20745;-74
2023/07/14 01:15:43;;;;;;;5.13;2.80;;;;;;;18.67;78.93;98393.38;4010258;29;20657;-74
2023/07/14 01:17:47;;;;;;;3.40;2.80;;;;;;;18.64;78.56;98392.81;4010649;29;20770;-74
2023/07/14 01:19:52;;;;;;;3.43;2.60;;;;;;;18.61;79.86;98401.03;4007801;29;21097;-74
2023/07/14 01:22:05;;;;;;;5.53;2.90;;;;;;;18.55;79.80;98402.47;4007901;29;20745;-74
2023/07/14 01:24:12;;;;;;;3.33;2.80;;;;;;;18.52;80.24;98397.50;4008403;29;20633;-74
2023/07/14 01:26:23;;;;;;;3.90;2.60;;;;;;;18.47;80.04;98394.44;4009306;29;20668;-74
2023/07/14 01:28:27;;;;;;;3.30;2.63;;;;;;;18.44;80.19;98404.47;4005921;29;20757;-74
2023/07/14 01:30:32;;;;;;;3.80;2.53;;;;;;;18.41;79.30;98402.94;4001316;29;20766;-74
2023/07/14 01:32:37;;;;;;;3.90;2.77;;;;;;;18.44;79.77;98413.22;4011867;29;20713;-74
2023/07/14 01:34:40;;;;;;;3.07;2.70;;;;;;;18.44;79.03;98407.94;4007678;29;20650;-74
2023/07/14 01:36:44;;;;;;;3.50;2.80;;;;;;;18.40;79.55;98404.91;4006845;29;20661;-74
2023/07/14 01:38:47;;;;;;;4.40;2.97;;;;;;;18.38;79.64;98406.88;4009764;29;21255;-73
2023/07/14 01:40:49;;;;;;;4.10;2.53;;;;;;;18.28;80.08;98404.28;4010081;29;20672;-73
2023/07/14 01:42:54;;;;;;;4.97;2.80;;;;;;;18.19;79.80;98402.50;4000059;29;20717;-74
2023/07/14 01:44:59;;;;;;;4.73;3.20;;;;;;;18.11;79.10;98399.69;3998565;29;20689;-74
2023/07/14 01:47:02;;;;;;;5.20;2.77;;;;;;;18.03;79.17;98396.09;4013382;29;20709;-74
2023/07/14 01:49:13;;;;;;;3.23;2.83;;;;;;;17.93;79.48;98390.00;4010934;29;20672;-74
2023/07/14 01:51:16;;;;;;;4.03;2.90;;;;;;;17.84;81.49;98396.13;4010104;29;20677;-73
2023/07/14 01:53:23;;;;;;;3.83;2.90;;;;;;;17.83;81.86;98388.34;4008757;29;20652;-74
2023/07/14 01:55:31;;;;;;;3.67;2.60;;;;;;;17.81;81.04;98392.97;3989723;29;21245;-74
2023/07/14 01:57:36;;;;;;;3.83;2.77;;;;;;;17.80;81.93;98389.50;4011925;29;20701;-74
2023/07/14 01:59:41;;;;;;;3.67;2.93;;;;;;;17.80;81.19;98394.78;4012279;29;20653;-74
2023/07/14 02:01:45;;;;;;;4.83;3.60;;;;;;;17.80;81.40;98394.78;4015189;29;20674;-74
2023/07/14 02:03:51;;;;;;;4.40;4.00;;;;;;;17.80;81.24;98384.22;4016834;29;20664;-73
2023/07/14 02:05:53;;;;;;;3.67;3.00;;;;;;;17.81;82.26;98390.31;3999963;29;20666;-74
2023/07/14 02:08:00;;;;;;;5.07;3.40;;;;;;;17.77;81.90;98386.28;4015971;29;21032;-74
2023/07/14 02:10:03;;;;;;;5.40;3.03;;;;;;;17.76;82.84;98380.19;4000437;29;21248;-74
2023/07/14 02:12:07;;;;;;;3.93;2.43;;;;;;;17.73;81.34;98374.38;4007965;29;20699;-74
2023/07/14 02:14:16;;;;;;;4.03;3.03;;;;;;;17.72;81.14;98380.59;4016078;29;20663;-74
2023/07/14 02:16:20;;;;;;;3.83;3.00;;;;;;;17.73;81.97;98379.66;4012755;29;20653;-74
2023/07/14 02:18:26;;;;;;;4.23;3.20;;;;;;;17.70;81.59;98383.38;4013237;29;20656;-74
2023/07/14 02:20:32;;;;;;;4.83;3.10;;;;;;;17.67;81.98;98386.31;4010063;29;20689;-74
2023/07/14 02:22:37;;;;;;;3.13;2.67;;;;;;;17.64;82.14;98383.94;4011361;29;20754;-74
2023/07/14 02:24:40;;;;;;;4.43;3.17;;;;;;;17.62;83.44;98391.19;4009384;29;20655;-74
2023/07/14 02:26:44;;;;;;;4.80;2.53;;;;;;;17.64;82.10;98383.94;4011813;29;20699;-74
2023/07/14 02:28:47;;;;;;;4.10;3.00;;;;;;;17.63;82.52;98377.00;4012837;29;20786;-74
2023/07/14 02:30:56;;;;;;;3.30;3.00;;;;;;;17.61;82.79;98378.13;4014907;29;20667;-74
2023/07/14 02:33:03;;;;;;;3.93;2.87;;;;;;;17.57;82.04;98384.66;4025535;29;20711;-74
2023/07/14 02:35:13;;;;;;;3.90;2.90;;;;;;;17.46;81.92;98380.34;4013780;29;20712;-74
2023/07/14 02:37:42;;;;;;;3.37;2.97;;;;;;;17.36;82.18;98372.59;4016572;29;20662;-74
2023/07/14 02:39:49;;;;;;;3.90;3.30;;;;;;;17.31;83.04;98369.56;4006863;29;20686;-74
2023/07/14 02:41:55;;;;;;;5.37;3.10;;;;;;;17.31;82.81;98370.38;4009668;29;20671;-74
2023/07/14 02:44:02;;;;;;;4.20;3.50;;;;;;;17.33;83.49;98370.25;4023139;29;20661;-78
2023/07/14 02:46:10;;;;;;;3.73;3.27;;;;;;;17.34;83.62;98369.28;4009478;29;20807;-78
2023/07/14 02:48:16;;;;;;;4.10;3.63;;;;;;;17.32;82.50;98373.84;4010571;29;20661;-78
2023/07/14 02:50:21;;;;;;;4.30;3.20;;;;;;;17.31;83.43;98380.91;4001053;29;20689;-78
2023/07/14 02:52:24;;;;;;;3.87;3.27;;;;;;;17.26;82.65;98377.88;4015126;29;20677;-79
2023/07/14 02:54:27;;;;;;;5.33;3.50;;;;;;;17.23;82.97;98378.16;4013540;29;20670;-78
2023/07/14 02:56:30;;;;;;;3.63;3.30;;;;;;;17.20;82.74;98375.78;4000143;29;20668;-78
2023/07/14 02:58:33;;;;;;;7.43;3.40;;;;;;;17.19;82.73;98375.91;4021746;29;21198;-78
2023/07/14 03:00:36;;;;;;;3.80;3.23;;;;;;;17.20;82.56;98372.28;4012658;29;20668;-78
2023/07/14 03:02:38;;;;;;;4.60;3.37;;;;;;;17.20;84.75;98372.28;4007804;29;21312;-78
2023/07/14 03:04:42;;;;;;;3.47;3.10;;;;;;;17.18;84.67;98375.03;4008052;29;20663;-78
2023/07/14 03:06:46;;;;;;;3.90;3.17;;;;;;;17.13;84.27;98372.00;3998659;29;20701;-78
2023/07/14 03:08:50;;;;;;;4.70;3.70;;;;;;;17.08;85.09;98373.41;4014439;29;20701;-78
2023/07/14 03:10:56;;;;;;;3.53;3.20;;;;;;;17.05;83.73;98369.22;4009612;29;20749;-78
2023/07/14 03:12:59;;;;;;;3.73;3.20;;;;;;;17.03;83.16;98365.91;4000561;29;20740;-78
2023/07/14 03:15:04;;;;;;;5.80;4.03;;;;;;;17.02;84.44;98363.41;4016693;29;20686;-78
2023/07/14 03:17:06;;;;;;;3.80;3.30;;;;;;;17.01;84.20;98365.19;4014520;29;20663;-78
2023/07/14 03:19:09;;;;;;;4.57;3.23;;;;;;;16.99;83.98;98355.78;4010729;29;20663;-78
2023/07/14 03:21:12;;;;;;;4.23;3.30;;;;;;;16.95;84.09;98353.56;4012224;29;20670;-78
2023/07/14 03:23:17;;;;;;;4.20;3.13;;;;;;;16.91;84.70;98352.97;4010502;29;20656;-78
2023/07/14 03:25:20;;;;;;;4.87;3.50;;;;;;;16.90;84.88;98353.97;4013010;29;20747;-78
2023/07/14 03:27:24;;;;;;;4.03;3.57;;;;;;;16.89;84.46;98357.56;4022366;29;21308;-78
2023/07/14 03:29:27;;;;;;;4.27;3.70;;;;;;;16.90;83.03;98350.47;4006717;29;21254;-78
2023/07/14 03:31:30;;;;;;;4.20;3.07;;;;;;;16.92;84.33;98356.47;4015908;29;20743;-78
2023/07/14 03:33:34;;;;;;;4.07;3.53;;;;;;;16.88;85.42;98349.78;4024130;29;20657;-78
2023/07/14 03:35:38;;;;;;;4.13;3.33;;;;;;;16.86;85.62;98343.84;4007640;29;20664;-77
2023/07/14 03:37:42;;;;;;;3.83;3.47;;;;;;;16.81;85.00;98341.59;4007273;29;20679;-77
2023/07/14 03:39:46;;;;;;;5.47;3.80;;;;;;;16.84;84.87;98345.75;4004670;29;20677;-77
2023/07/14 03:41:49;;;;;;;5.40;3.93;;;;;;;16.85;83.72;98340.34;4004088;29;20680;-78
2023/07/14 03:43:52;;;;;;;6.63;3.77;;;;;;;16.85;84.97;98342.97;3995840;29;20721;-78
2023/07/14 03:45:57;;;;;;;5.03;3.70;;;;;;;16.86;84.27;98344.66;4014787;29;20889;-77
2023/07/14 03:48:03;;;;;;;4.90;3.47;;;;;;;16.84;85.24;98343.97;4009978;29;20655;-78
2023/07/14 03:50:08;;;;;;;5.53;3.60;;;;;;;16.83;83.28;98342.28;4007430;29;20659;-78
2023/07/14 03:52:13;;;;;;;6.60;3.57;;;;;;;16.85;84.88;98345.63;4014688;29;20677;-78
2023/07/14 03:54:16;;;;;;;4.37;3.97;;;;;;;16.87;84.28;98342.84;3995674;29;20661;-78
2023/07/14 03:56:21;;;;;;;4.50;3.43;;;;;;;16.86;83.99;98349.91;4012145;29;20658;-78
2023/07/14 03:58:24;;;;;;;5.80;3.60;;;;;;;16.86;84.45;98342.03;4011955;29;21090;-78
2023/07/14 04:00:30;;;;;;;5.70;4.10;;;;;;;16.83;85.68;98344.94;4009744;29;21031;-78
2023/07/14 04:02:34;;;;;;;6.67;3.80;;;;;;;16.80;84.87;98347.84;4015005;29;20670;-78
2023/07/14 04:04:37;;;;;;;5.20;3.60;;;;;;;16.79;85.90;98342.69;4022165;29;20675;-78
2023/07/14 04:06:40;;;;;;;3.43;3.13;;;;;;;16.79;86.10;98342.69;3999256;29;20666;-78
2023/07/14 04:08:44;;;;;;;5.90;4.03;;;;;;;16.81;85.24;98349.50;4010806;29;20715;-78
2023/07/14 04:10:49;;;;;;;4.30;3.40;;;;;;;16.87;85.31;98346.34;4012181;29;20789;-77
2023/07/14 04:12:53;;;;;;;6.37;3.80;;;;;;;16.91;85.19;98345.06;4013585;29;20698;-78
2023/07/14 04:14:56;;;;;;;3.90;3.50;;;;;;;16.98;85.26;98350.66;4010783;29;20667;-78
2023/07/14 04:17:00;;;;;;;5.10;3.90;;;;;;;17.03;84.71;98351.88;4010322;29;20688;-78
2023/07/14 04:19:03;;;;;;;4.40;3.77;;;;;;;17.11;84.36;98344.13;4012803;29;20698;-77
2023/07/14 04:21:08;;;;;;;4.47;3.50;;;;;;;17.18;84.21;98356.59;4013350;29;20770;-78
2023/07/14 04:23:11;;;;;;;4.53;3.40;;;;;;;17.25;84.02;98351.66;4007229;29;21236;-78
2023/07/14 04:25:14;;;;;;;7.80;3.77;;;;;;;17.32;83.78;98360.66;4015055;29;20667;-77
2023/07/14 04:27:18;;;;;;;6.40;4.00;;;;;;;17.37;82.18;98364.53;4011987;29;20694;-77
2023/07/14 04:29:22;;;;;;;4.57;3.67;;;;;;;17.41;81.95;98365.09;4009091;29;20651;-77
2023/07/14 04:31:28;;;;;;;4.80;3.20;;;;;;;17.41;83.57;98370.38;4009113;29;20928;-77
2023/07/14 04:33:31;;;;;;;4.27;3.63;;;;;;;17.44;83.93;98365.66;4003598;29;20680;-77
2023/07/14 04:35:35;;;;;;;4.37;3.50;;;;;;;17.46;83.96;98363.72;4009804;29;20656;-78
2023/07/14 04:37:38;;;;;;;4.63;3.90;;;;;;;17.50;83.98;98373.00;4001791;29;20673;-78
2023/07/14 04:39:41;;;;;;;3.90;3.27;;;;;;;17.54;82.44;98372.56;4008916;29;20668;-78
2023/07/14 04:41:45;;;;;;;3.93;3.27;;;;;;;17.60;82.89;98371.19;4002043;29;20671;-78
2023/07/14 04:43:48;;;;;;;5.53;3.33;;;;;;;17.64;83.36;98373.41;3997580;29;20717;-78
2023/07/14 04:45:52;;;;;;;4.03;3.37;;;;;;;17.68;83.91;98373.94;4010134;29;20657;-78
2023/07/14 04:47:56;;;;;;;4.80;3.20;;;;;;;17.72;82.12;98373.50;4009561;29;21085;-78
2023/07/14 04:50:00;;;;;;;4.57;2.80;;;;;;;17.74;82.39;98374.22;4005735;29;20688;-78
2023/07/14 04:52:03;;;;;;;7.87;5.40;;;;;;;17.79;81.85;98373.81;4011006;29;20686;-78
2023/07/14 04:54:08;;;;;;;4.17;3.27;;;;;;;17.83;82.58;98378.66;4010002;29;20673;-78
2023/07/14 04:56:11;;;;;;;3.40;3.00;;;;;;;17.87;81.46;98377.38;4022509;29;20666;-78
2023/07/14 04:58:16;;;;;;;3.53;2.90;;;;;;;17.89;81.45;98375.44;4018802;29;21466;-78
2023/07/14 05:00:20;;;;;;;5.03;3.20;;;;;;;17.94;81.09;98375.84;4009094;29;20660;-78
2023/07/14 05:02:24;;;;;;;5.03;3.60;;;;;;;18.00;82.36;98364.72;4010904;29;20748;-78
2023/07/14 05:04:29;;;;;;;4.40;2.97;;;;;;;18.07;81.83;98365.78;4007559;29;20669;-78
2023/07/14 05:06:32;;;;;;;3.80;3.37;;;;;;;18.15;81.44;98368.59;4008131;29;20663;-80
2023/07/14 05:08:35;;;;;;;4.30;3.20;;;;;;;18.22;80.05;98364.38;3987333;29;20671;-77
2023/07/14 05:10:39;;;;;;;4.37;3.20;;;;;;;18.29;81.37;98360.19;4007572;29;20664;-80
2023/07/14 05:12:42;;;;;;;5.63;3.63;;;;;;;18.38;80.84;98360.13;4011467;29;20720;-78
2023/07/14 05:14:48;;;;;;;4.43;3.37;;;;;;;18.44;79.81;98357.72;4009911;29;20691;-78
2023/07/14 05:16:51;;;;;;;3.87;3.27;;;;;;;18.44;79.30;98352.44;4007125;29;20657;-78
2023/07/14 05:18:56;;;;;;;4.53;3.30;;;;;;;18.48;79.31;98351.19;4006578;29;20712;-77
2023/07/14 05:21:04;;;;;;;7.47;3.50;;;;;;;18.55;79.29;98347.00;4003970;29;20668;-77
2023/07/14 05:23:11;;;;;;;3.83;3.37;;;;;;;18.64;79.34;98350.53;4002833;29;20674;-77
2023/07/14 05:25:16;;;;;;;5.70;3.40;;;;;;;18.72;79.63;98354.13;4012248;29;20660;-78
2023/07/14 05:27:19;;;;;;;4.27;3.23;;;;;;;18.80;79.34;98351.56;3998309;29;20691;-78
2023/07/14 05:29:23;;;;;;;4.80;3.50;;;;;;;18.90;80.46;98347.88;4013384;29;20691;-78
2023/07/14 05:31:26;;;;;;;5.20;3.30;;;;;;;19.02;80.38;98348.53;4009463;29;21326;-78
2023/07/14 05:33:28;;;;;;;4.20;3.20;;;;;;;19.11;79.74;98353.75;3992749;29;20666;-78
2023/07/14 05:35:33;;;;;;;5.90;3.87;;;;;;;19.19;78.73;98355.63;4006606;29;20667;-79
2023/07/14 05:37:35;;;;;;;4.40;3.80;;;;;;;19.30;78.37;98350.09;4007967;29;20700;-77
2023/07/14 05:39:38;;;;;;;3.93;3.40;;;;;;;19.41;78.16;98351.53;4011096;29;21154;-77
2023/07/14 05:41:41;;;;;;;5.30;3.33;;;;;;;19.55;78.44;98353.63;4015396;29;20679;-77
2023/07/14 05:43:44;;;;;;;4.60;3.87;;;;;;;19.72;77.13;98357.22;4012377;29;20657;-78
2023/07/14 05:45:48;;;;;;;5.37;3.90;;;;;;;19.87;77.84;98356.53;4012032;29;20674;-77
2023/07/14 05:47:51;;;;;;;4.57;3.80;;;;;;;19.99;76.86;98363.25;4015738;29;20731;-78
2023/07/14 05:49:55;;;;;;;4.13;3.13;;;;;;;20.06;76.26;98365.13;4015006;29;20658;-77
2023/07/14 05:51:59;;;;;;;4.53;3.90;;;;;;;20.14;75.92;98359.03;4014920;29;20743;-77
2023/07/14 05:54:02;;;;;;;4.40;3.60;;;;;;;20.20;76.18;98364.53;4010786;29;21081;-78
2023/07/14 05:56:05;;;;;;;3.83;3.40;;;;;;;20.26;75.84;98360.44;4012121;29;21074;-78
2023/07/14 05:58:08;;;;;;;3.73;3.30;;;;;;;20.34;75.40;98362.13;4014578;29;20669;-78
2023/07/14 06:00:16;;;;;;;3.97;3.17;;;;;;;20.57;76.07;98367.72;4013984;29;21092;-77
2023/07/14 06:02:20;;;;;;;5.63;3.20;;;;;;;20.90;75.89;98365.03;4000083;29;20659;-78
2023/07/14 06:04:23;;;;;;;4.30;3.23;;;;;;;21.15;73.50;98364.09;4013902;29;20713;-78
2023/07/14 06:06:27;;;;;;;5.17;3.33;;;;;;;21.34;71.69;98354.81;4016354;29;20645;-78
2023/07/14 06:08:32;;;;;;;5.40;3.17;;;;;;;21.47;72.00;98357.88;3999009;29;20664;-78
2023/07/14 06:10:34;;;;;;;3.07;2.77;;;;;;;21.60;71.41;98350.22;4017951;29;20654;-78
2023/07/14 06:12:38;;;;;;;3.97;3.07;;;;;;;21.82;72.22;98362.84;4012777;29;20648;-78
2023/07/14 06:14:42;;;;;;;4.20;3.17;;;;;;;22.16;71.70;98364.28;4015118;29;20770;-78
2023/07/14 06:16:45;;;;;;;4.23;3.10;;;;;;;22.51;70.78;98353.25;4029942;29;20657;-78
2023/07/14 06:18:48;;;;;;;8.03;3.17;;;;;;;22.72;70.66;98348.97;4007198;29;21317;-77
2023/07/14 06:20:52;;;;;;;4.33;3.10;;;;;;;22.80;70.03;98348.94;4013863;29;20750;-78
2023/07/14 06:22:55;;;;;;;6.87;5.10;;;;;;;22.88;70.37;98346.22;4019427;29;21096;-78
2023/07/14 06:25:00;;;;;;;5.33;3.30;;;;;;;22.93;70.58;98344.75;4014585;29;20728;-78
2023/07/14 06:27:05;;;;;;;4.53;2.90;;;;;;;23.09;70.89;98349.94;4006270;29;20683;-78
2023/07/14 06:29:12;;;;;;;4.97;3.70;;;;;;;23.13;69.73;98334.47;4004511;29;20664;-78
2023/07/14 06:31:18;;;;;;;3.80;3.03;;;;;;;23.09;69.66;98336.63;4008992;29;20671;-78
2023/07/14 06:33:20;;;;;;;3.73;2.83;;;;;;;23.13;70.22;98334.47;4016995;29;20698;-78
2023/07/14 06:35:24;;;;;;;3.87;3.00;;;;;;;23.13;69.52;98321.16;4010458;29;20666;-78
2023/07/14 06:37:27;;;;;;;4.00;3.00;;;;;;;23.17;69.38;98325.13;4015765;29;20730;-78
2023/07/14 06:39:30;;;;;;;4.37;3.10;;;;;;;23.26;69.11;98322.25;4013552;29;20654;-78
2023/07/14 06:41:35;;;;;;;4.20;2.87;;;;;;;23.30;68.15;98329.69;3999262;29;20683;-78
2023/07/14 06:43:39;;;;;;;4.23;3.13;;;;;;;23.48;67.94;98329.38;4014311;29;21211;-78
2023/07/14 06:45:42;;;;;;;4.30;3.20;;;;;;;23.92;67.53;98334.69;4019609;29;20647;-78
2023/07/14 06:47:46;;;;;;;3.77;2.80;;;;;;;24.32;66.93;98328.91;4019085;29;20657;-77
2023/07/14 06:49:49;;;;;;;5.67;3.27;;;;;;;24.34;66.78;98327.75;4016344;29;20679;-78
2023/07/14 06:51:52;;;;;;;3.50;2.80;;;;;;;24.34;65.62;98325.09;4007986;29;20652;-78
2023/07/14 06:53:56;;;;;;;5.00;3.07;;;;;;;24.30;65.87;98322.94;4011892;29;21038;-78
2023/07/14 06:55:59;;;;;;;3.93;3.00;;;;;;;24.19;66.45;98312.72;4011477;29;20643;-78
2023/07/14 06:58:04;;;;;;;4.20;3.17;;;;;;;24.40;67.04;98313.69;4014790;29;20711;-78
2023/07/14 07:00:12;;;;;;;3.70;2.70;;;;;;;24.74;64.69;98309.38;4013548;29;20679;-78
2023/07/14 07:02:15;;;;;;;3.10;2.67;;;;;;;24.94;64.38;98312.28;4015365;29;20656;-78
2023/07/14 07:04:18;;;;;;;5.10;3.10;;;;;;;25.13;63.37;98318.69;4013611;29;20769;-78
2023/07/14 07:06:21;;;;;;;5.40;2.60;;;;;;;25.47;63.01;98316.19;4009134;29;20723;-78
2023/07/14 07:08:24;;;;;;;3.60;2.77;;;;;;;25.89;61.02;98316.97;4009817;29;20661;-78
2023/07/14 07:10:28;;;;;;;3.10;2.70;;;;;;;26.12;60.94;98323.72;4015187;29;20723;-78
2023/07/14 07:12:32;;;;;;;3.60;2.60;;;;;;;26.13;60.21;98303.97;4010199;29;21024;-78
2023/07/14 07:14:36;;;;;;;4.10;3.10;;;;;;;26.06;60.50;98301.47;4015464;29;20695;-78
2023/07/14 07:16:39;;;;;;;3.50;2.90;;;;;;;26.37;60.28;98306.22;4013043;29;20660;-78
2023/07/14 07:18:45;;;;;;;4.57;3.20;;;;;;;26.68;60.26;98307.38;4018593;29;20667;-78
2023/07/14 07:20:48;;;;;;;3.00;2.70;;;;;;;26.94;61.10;98293.31;4007425;29;21024;-78
2023/07/14 07:22:51;;;;;;;10.60;2.90;;;;;;;27.13;61.04;98296.03;4008276;29;21299;-78
2023/07/14 07:24:54;;;;;;;2.70;2.47;;;;;;;27.47;59.73;98296.72;4011325;29;20729;-78
2023/07/14 07:26:57;;;;;;;3.37;2.90;;;;;;;27.69;58.08;98290.97;4008726;29;20694;-79
2023/07/14 07:29:01;;;;;;;2.47;2.20;;;;;;;27.85;57.83;98293.25;3999318;29;20781;-78
2023/07/14 07:31:09;;;;;;;3.57;2.10;;;;;;;28.04;57.22;98290.53;4010748;29;20694;-78
2023/07/14 07:33:12;;;;;;;3.37;2.67;;;;;;;28.34;56.80;98289.06;4012287;29;20700;-79
2023/07/14 07:35:15;;;;;;;2.57;2.27;;;;;;;28.38;56.76;98292.97;3998973;29;20662;-79
2023/07/14 07:37:18;;;;;;;4.10;2.67;;;;;;;28.19;56.67;98272.38;4006435;29;20666;-78
2023/07/14 07:39:22;;;;;;;4.10;2.37;;;;;;;28.24;56.56;98264.50;4009014;29;21078;-78
2023/07/14 07:41:26;;;;;;;3.40;2.60;;;;;;;28.55;55.60;98270.81;4004965;29;20669;-78
2023/07/14 07:43:29;;;;;;;4.80;2.93;;;;;;;28.69;55.45;98266.25;4016479;29;20723;-78
2023/07/14 07:45:32;;;;;;;3.20;2.30;;;;;;;28.69;57.41;98272.44;4009999;29;20650;-78
2023/07/14 07:47:37;;;;;;;2.97;2.50;;;;;;;28.78;55.47;98265.78;4013362;29;20673;-78
2023/07/14 07:49:40;;;;;;;3.70;2.17;;;;;;;28.87;54.98;98271.72;4009799;29;21454;-79
2023/07/14 07:51:44;;;;;;;3.00;2.00;;;;;;;29.05;55.15;98276.19;4013241;29;20669;-79
2023/07/14 07:53:48;;;;;;;3.00;2.40;;;;;;;29.10;54.17;98270.16;4013104;29;20756;-79
2023/07/14 07:55:55;;;;;;;3.07;2.33;;;;;;;29.18;54.35;98265.38;4010364;29;20720;-79
2023/07/14 07:57:58;;;;;;;3.10;2.17;;;;;;;29.22;53.06;98261.19;4010552;29;20664;-79
2023/07/14 08:00:01;;;;;;;3.50;2.73;;;;;;;29.32;54.47;98258.88;4012717;29;21355;-79
2023/07/14 08:02:14;;;;;;;3.40;2.20;;;;;;;29.42;54.05;98261.09;4011982;29;20658;-79
2023/07/14 08:04:19;;;;;;;2.50;1.90;;;;;;;29.48;53.58;98253.81;4009921;29;20985;-79
2023/07/14 08:06:24;;;;;;;3.60;2.20;;;;;;;29.59;53.20;98250.38;4014005;29;20699;-79
2023/07/14 08:08:27;;;;;;;4.37;2.50;;;;;;;29.65;53.05;98244.13;4013595;29;20661;-79
2023/07/14 08:10:31;;;;;;;3.20;2.17;;;;;;;29.56;51.99;98236.56;4011527;29;21241;-79
2023/07/14 08:12:34;;;;;;;3.10;2.00;;;;;;;29.58;53.29;98240.66;4010710;29;20672;-78
2023/07/14 08:14:50;;;;;;;2.93;2.63;;;;;;;29.93;53.57;98238.31;4016901;29;20709;-79
2023/07/14 08:16:53;;;;;;;3.50;2.10;;;;;;;30.19;53.06;98228.09;4011361;29;20657;-79
2023/07/14 08:18:57;;;;;;;2.87;2.10;;;;;;;30.31;52.96;98226.28;4015518;29;20658;-79
2023/07/14 08:21:02;;;;;;;3.50;2.33;;;;;;;30.49;52.44;98224.44;4011051;29;21010;-78
2023/07/14 08:23:06;;;;;;;4.67;2.20;;;;;;;30.58;52.33;98221.22;4010558;29;21057;-79
2023/07/14 08:25:10;;;;;;;2.93;1.80;;;;;;;30.49;50.30;98213.66;4011916;29;22201;-79
2023/07/14 08:27:14;;;;;;;2.17;1.73;;;;;;;30.63;50.16;98231.31;4008461;29;20662;-79
2023/07/14 08:29:17;;;;;;;2.73;1.70;;;;;;;30.71;47.36;98220.22;3998027;29;20718;-79
2023/07/14 08:31:20;;;;;;;2.10;1.57;;;;;;;30.66;48.02;98210.13;4011045;29;20736;-79
2023/07/14 08:33:25;;;;;;;2.20;1.80;;;;;;;30.80;48.33;98210.78;4010433;29;20682;-79
2023/07/14 08:35:28;;;;;;;2.53;1.63;;;;;;;30.94;47.08;98216.63;4009529;29;20669;-78
2023/07/14 08:37:32;;;;;;;2.53;1.73;;;;;;;30.90;46.15;98211.06;4009657;29;20661;-79
2023/07/14 08:39:35;;;;;;;2.37;1.50;;;;;;;30.91;47.14;98204.63;4013571;29;20665;-78
2023/07/14 08:41:40;;;;;;;3.37;1.77;;;;;;;31.01;47.02;98201.16;4009219;29;20678;-79
2023/07/14 08:43:54;;;;;;;3.90;2.00;;;;;;;30.94;46.61;98203.13;4008939;29;20682;-79
2023/07/14 08:46:01;;;;;;;2.17;1.43;;;;;;;30.75;46.90;98207.97;4012330;29;20661;-79
2023/07/14 08:48:13;;;;;;;1.87;1.60;;;;;;;30.77;47.43;98197.75;4013518;29;20661;-79
2023/07/14 08:50:20;;;;;;;2.63;1.67;;;;;;;30.87;45.99;98198.00;4011306;29;21107;-79
2023/07/14 08:52:28;;;;;;;4.40;2.60;;;;;;;30.99;47.45;98200.56;4009550;29;20675;-79
2023/07/14 08:54:46;;;;;;;3.80;1.60;;;;;;;31.09;46.29;98200.84;4007977;29;21127;-79
2023/07/14 08:56:50;;;;;;;5.27;1.80;;;;;;;31.09;45.94;98200.84;4008568;29;20687;-79
2023/07/14 08:58:52;;;;;;;2.23;1.60;;;;;;;30.84;46.33;98187.69;4025386;29;20668;-79
2023/07/14 09:01:05;;;;;;;3.50;1.53;;;;;;;30.71;46.46;98177.13;4013865;29;20693;-79
2023/07/14 09:03:12;;;;;;;2.90;1.80;;;;;;;30.65;46.00;98181.53;4009111;29;20658;-79
2023/07/14 09:05:18;;;;;;;4.03;1.63;;;;;;;30.43;46.78;98179.53;4010202;29;21112;-79
2023/07/14 09:07:21;;;;;;;2.93;2.10;;;;;;;30.27;47.15;98173.94;4008388;29;20660;-79
2023/07/14 09:09:34;;;;;;;2.90;2.03;;;;;;;30.11;47.39;98172.66;4015259;29;21288;-79
2023/07/14 09:11:46;;;;;;;2.93;1.97;;;;;;;29.87;47.73;98166.53;4009539;29;20662;-79
2023/07/14 09:13:55;;;;;;;2.00;1.80;;;;;;;29.66;47.65;98165.03;4008974;29;21071;-79
2023/07/14 09:15:58;;;;;;;2.77;2.33;;;;;;;29.54;47.64;98160.63;4011487;29;20698;-79
2023/07/14 09:18:15;;;;;;;2.60;1.80;;;;;;;29.46;48.20;98155.53;4011931;29;20760;-79
2023/07/14 09:20:36;;;;;;;2.00;1.73;;;;;;;29.44;48.42;98160.31;4006939;29;20652;-79
2023/07/14 09:22:46;;;;;;;3.20;1.73;;;;;;;29.47;48.69;98155.31;4004138;29;20705;-79
2023/07/14 09:24:57;;;;;;;3.20;1.70;;;;;;;29.65;49.28;98165.28;4011386;29;20707;-79
2023/07/14 09:27:00;;;;;;;2.30;1.70;;;;;;;29.82;48.44;98166.41;4008876;29;21083;-79
2023/07/14 09:29:10;;;;;;;2.87;2.10;;;;;;;29.85;47.55;98161.38;3999104;29;21334;-79
2023/07/14 09:31:24;;;;;;;3.40;1.70;;;;;;;29.75;49.01;98154.84;4011639;29;20712;-79
2023/07/14 09:33:29;;;;;;;2.70;1.80;;;;;;;29.65;49.13;98149.13;4010779;29;20654;-79
2023/07/14 09:35:32;;;;;;;2.20;1.80;;;;;;;29.61;49.03;98151.44;4010780;29;21027;-79
2023/07/14 09:37:41;;;;;;;2.47;1.53;;;;;;;29.52;47.56;98142.00;4007117;29;21261;-79
2023/07/14 09:39:45;;;;;;;3.20;2.10;;;;;;;29.46;48.25;98145.59;4011156;29;21029;-79
2023/07/14 09:41:52;;;;;;;2.33;1.60;;;;;;;29.49;48.49;98147.03;4008269;29;20734;-79
2023/07/14 09:43:57;;;;;;;3.30;3.00;;;;;;;29.61;48.91;98151.44;4009992;29;20669;-79
2023/07/14 09:46:00;;;;;;;2.50;2.00;;;;;;;29.68;48.39;98143.31;4008240;29;20696;-79
2023/07/14 09:48:12;;;;;;;2.50;2.10;;;;;;;29.75;50.01;98149.44;4014803;29;20661;-79